sensor_id;sensor_type;location;lat;lon;timestamp;pressure;altitude;pressure_sealevel;temperature;humidity
47750;BME280;49810;48.160;10.812;2024-03-22T00:00:25;96047.06;;;4.12;95.41
47750;BME280;49810;48.160;10.812;2024-03-22T00:01:26;96043.88;;;4.17;95.19
47750;BME280;49810;48.160;10.812;2024-03-22T00:02:27;96034.19;;;4.22;95.54
47750;BME280;49810;48.160;10.812;2024-03-22T00:03:29;96044.66;;;4.26;95.16
47750;BME280;49810;48.160;10.812;2024-03-22T00:04:30;96036.16;;;4.31;95.30
47750;BME280;49810;48.160;10.812;2024-03-22T00:05:31;96043.06;;;4.28;95.50
47750;BME280;49810;48.160;10.812;2024-03-22T00:06:32;96039.38;;;4.26;95.67
47750;BME280;49810;48.160;10.812;2024-03-22T00:07:33;96045.84;;;4.25;95.72
47750;BME280;49810;48.160;10.812;2024-03-22T00:08:36;96039.50;;;4.22;95.56
47750;BME280;49810;48.160;10.812;2024-03-22T00:09:37;96041.84;;;4.21;95.69
47750;BME280;49810;48.160;10.812;2024-03-22T00:10:38;96042.34;;;4.28;95.38
47750;BME280;49810;48.160;10.812;2024-03-22T00:11:40;96047.25;;;4.38;95.47
47750;BME280;49810;48.160;10.812;2024-03-22T00:12:42;96040.47;;;4.38;95.58
47750;BME280;49810;48.160;10.812;2024-03-22T00:13:43;96043.56;;;4.36;95.03
47750;BME280;49810;48.160;10.812;2024-03-22T00:14:45;96041.66;;;4.37;95.24
47750;BME280;49810;48.160;10.812;2024-03-22T00:15:47;96035.06;;;4.41;95.25
47750;BME280;49810;48.160;10.812;2024-03-22T00:16:48;96041.97;;;4.38;95.56
47750;BME280;49810;48.160;10.812;2024-03-22T00:17:49;96036.03;;;4.34;95.49
47750;BME280;49810;48.160;10.812;2024-03-22T00:18:50;96034.41;;;4.28;95.58
47750;BME280;49810;48.160;10.812;2024-03-22T00:19:51;96035.25;;;4.25;95.13
47750;BME280;49810;48.160;10.812;2024-03-22T00:20:53;96024.09;;;4.30;95.21
47750;BME280;49810;48.160;10.812;2024-03-22T00:21:54;96023.47;;;4.26;95.06
47750;BME280;49810;48.160;10.812;2024-03-22T00:22:55;96029.53;;;4.27;95.12
47750;BME280;49810;48.160;10.812;2024-03-22T00:23:58;96022.13;;;4.22;95.51
47750;BME280;49810;48.160;10.812;2024-03-22T00:24:59;96020.97;;;4.22;95.65
47750;BME280;49810;48.160;10.812;2024-03-22T00:26:00;96029.09;;;4.28;95.49
47750;BME280;49810;48.160;10.812;2024-03-22T00:27:01;96030.16;;;4.31;95.14
47750;BME280;49810;48.160;10.812;2024-03-22T00:28:03;96029.09;;;4.28;95.41
47750;BME280;49810;48.160;10.812;2024-03-22T00:29:04;96025.44;;;4.34;95.52
47750;BME280;49810;48.160;10.812;2024-03-22T00:30:08;96027.25;;;4.38;95.42
47750;BME280;49810;48.160;10.812;2024-03-22T00:31:10;96022.78;;;4.34;95.81
47750;BME280;49810;48.160;10.812;2024-03-22T00:32:11;96022.91;;;4.31;95.11
47750;BME280;49810;48.160;10.812;2024-03-22T00:33:12;96016.41;;;4.23;95.27
47750;BME280;49810;48.160;10.812;2024-03-22T00:34:13;96025.28;;;4.29;95.50
47750;BME280;49810;48.160;10.812;2024-03-22T00:35:15;96022.75;;;4.26;95.13
47750;BME280;49810;48.160;10.812;2024-03-22T00:36:16;96018.53;;;4.37;95.32
47750;BME280;49810;48.160;10.812;2024-03-22T00:37:17;96030.19;;;4.39;95.41
47750;BME280;49810;48.160;10.812;2024-03-22T00:38:18;96015.16;;;4.37;95.15
47750;BME280;49810;48.160;10.812;2024-03-22T00:39:20;96020.16;;;4.34;95.33
47750;BME280;49810;48.160;10.812;2024-03-22T00:40:21;96017.81;;;4.37;95.32
47750;BME280;49810;48.160;10.812;2024-03-22T00:41:22;96024.94;;;4.27;95.21
47750;BME280;49810;48.160;10.812;2024-03-22T00:42:23;96024.78;;;4.22;95.15
47750;BME280;49810;48.160;10.812;2024-03-22T00:43:25;96024.16;;;4.18;94.89
47750;BME280;49810;48.160;10.812;2024-03-22T00:44:26;96021.72;;;4.23;95.31
47750;BME280;49810;48.160;10.812;2024-03-22T00:45:29;96021.03;;;4.32;95.04
47750;BME280;49810;48.160;10.812;2024-03-22T00:46:30;96019.28;;;4.38;95.22
47750;BME280;49810;48.160;10.812;2024-03-22T00:47:32;96019.97;;;4.29;95.47
47750;BME280;49810;48.160;10.812;2024-03-22T00:48:33;96020.53;;;4.24;95.19
47750;BME280;49810;48.160;10.812;2024-03-22T00:49:36;96015.47;;;4.17;95.50
47750;BME280;49810;48.160;10.812;2024-03-22T00:50:37;96016.75;;;4.13;94.79
47750;BME280;49810;48.160;10.812;2024-03-22T00:51:39;96013.69;;;4.14;94.90
47750;BME280;49810;48.160;10.812;2024-03-22T00:52:40;96010.28;;;4.13;95.13
47750;BME280;49810;48.160;10.812;2024-03-22T00:53:42;96010.13;;;4.08;95.53
47750;BME280;49810;48.160;10.812;2024-03-22T00:54:44;96011.09;;;4.02;95.10
47750;BME280;49810;48.160;10.812;2024-03-22T00:55:45;96009.44;;;3.95;94.96
47750;BME280;49810;48.160;10.812;2024-03-22T00:56:47;96006.56;;;3.89;95.48
47750;BME280;49810;48.160;10.812;2024-03-22T00:57:48;96011.28;;;3.86;94.87
47750;BME280;49810;48.160;10.812;2024-03-22T00:58:50;96001.22;;;3.81;94.93
47750;BME280;49810;48.160;10.812;2024-03-22T00:59:51;96005.78;;;3.80;95.41
47750;BME280;49810;48.160;10.812;2024-03-22T01:00:53;96006.81;;;3.83;95.67
47750;BME280;49810;48.160;10.812;2024-03-22T01:01:55;95998.34;;;3.88;94.96
47750;BME280;49810;48.160;10.812;2024-03-22T01:02:56;95992.28;;;3.87;95.12
47750;BME280;49810;48.160;10.812;2024-03-22T01:03:57;95999.81;;;3.88;95.14
47750;BME280;49810;48.160;10.812;2024-03-22T01:04:58;95993.34;;;3.89;95.30
47750;BME280;49810;48.160;10.812;2024-03-22T01:06:00;95998.53;;;3.93;95.23
47750;BME280;49810;48.160;10.812;2024-03-22T01:07:01;95992.78;;;3.94;95.49
47750;BME280;49810;48.160;10.812;2024-03-22T01:08:03;95993.53;;;3.95;95.24
47750;BME280;49810;48.160;10.812;2024-03-22T01:09:04;95991.03;;;3.92;95.26
47750;BME280;49810;48.160;10.812;2024-03-22T01:10:07;95995.16;;;3.92;95.31
47750;BME280;49810;48.160;10.812;2024-03-22T01:11:08;95977.28;;;3.84;95.44
47750;BME280;49810;48.160;10.812;2024-03-22T01:12:09;95991.44;;;3.90;95.55
47750;BME280;49810;48.160;10.812;2024-03-22T01:13:10;95989.34;;;3.85;95.38
47750;BME280;49810;48.160;10.812;2024-03-22T01:14:12;95992.41;;;3.83;95.48
47750;BME280;49810;48.160;10.812;2024-03-22T01:15:13;95986.41;;;3.83;95.27
47750;BME280;49810;48.160;10.812;2024-03-22T01:16:16;95987.03;;;3.74;95.49
47750;BME280;49810;48.160;10.812;2024-03-22T01:17:18;95995.84;;;3.72;95.75
47750;BME280;49810;48.160;10.812;2024-03-22T01:18:19;95992.28;;;3.66;95.91
47750;BME280;49810;48.160;10.812;2024-03-22T01:19:20;95981.06;;;3.62;95.22
47750;BME280;49810;48.160;10.812;2024-03-22T01:20:22;95987.41;;;3.64;95.38
47750;BME280;49810;48.160;10.812;2024-03-22T01:21:24;95987.00;;;3.66;95.23
47750;BME280;49810;48.160;10.812;2024-03-22T01:22:26;95986.88;;;3.69;95.94
47750;BME280;49810;48.160;10.812;2024-03-22T01:23:27;95979.84;;;3.75;95.66
47750;BME280;49810;48.160;10.812;2024-03-22T01:24:29;95986.19;;;3.78;95.93
47750;BME280;49810;48.160;10.812;2024-03-22T01:25:30;95984.31;;;3.78;96.01
47750;BME280;49810;48.160;10.812;2024-03-22T01:26:31;95971.06;;;3.78;95.54
47750;BME280;49810;48.160;10.812;2024-03-22T01:27:32;95970.19;;;3.81;95.88
47750;BME280;49810;48.160;10.812;2024-03-22T01:28:34;95960.50;;;3.78;95.40
47750;BME280;49810;48.160;10.812;2024-03-22T01:29:35;95970.94;;;3.82;95.85
47750;BME280;49810;48.160;10.812;2024-03-22T01:30:36;95971.06;;;3.78;96.17
47750;BME280;49810;48.160;10.812;2024-03-22T01:31:40;95956.16;;;3.72;95.98
47750;BME280;49810;48.160;10.812;2024-03-22T01:32:41;95967.94;;;3.71;95.37
47750;BME280;49810;48.160;10.812;2024-03-22T01:33:42;95973.31;;;3.67;96.03
47750;BME280;49810;48.160;10.812;2024-03-22T01:34:43;95975.66;;;3.65;95.49
47750;BME280;49810;48.160;10.812;2024-03-22T01:35:45;95969.63;;;3.64;95.35
47750;BME280;49810;48.160;10.812;2024-03-22T01:36:46;95971.66;;;3.61;95.63
47750;BME280;49810;48.160;10.812;2024-03-22T01:37:47;95970.91;;;3.60;95.44
47750;BME280;49810;48.160;10.812;2024-03-22T01:38:48;95970.06;;;3.63;95.74
47750;BME280;49810;48.160;10.812;2024-03-22T01:39:50;95970.06;;;3.63;95.43
47750;BME280;49810;48.160;10.812;2024-03-22T01:40:50;95969.19;;;3.66;95.52
47750;BME280;49810;48.160;10.812;2024-03-22T01:41:51;95966.75;;;3.72;95.96
47750;BME280;49810;48.160;10.812;2024-03-22T01:42:53;95968.91;;;3.64;96.15
47750;BME280;49810;48.160;10.812;2024-03-22T01:43:55;95965.50;;;3.63;96.23
47750;BME280;49810;48.160;10.812;2024-03-22T01:44:56;95962.22;;;3.59;95.37
47750;BME280;49810;48.160;10.812;2024-03-22T01:45:57;95962.06;;;3.54;95.55
47750;BME280;49810;48.160;10.812;2024-03-22T01:47:00;95960.66;;;3.49;95.52
47750;BME280;49810;48.160;10.812;2024-03-22T01:48:01;95961.41;;;3.50;96.10
47750;BME280;49810;48.160;10.812;2024-03-22T01:49:04;95965.97;;;3.49;96.05
47750;BME280;49810;48.160;10.812;2024-03-22T01:50:07;95960.13;;;3.54;96.09
47750;BME280;49810;48.160;10.812;2024-03-22T01:51:08;95961.00;;;3.52;96.02
47750;BME280;49810;48.160;10.812;2024-03-22T01:52:10;95960.66;;;3.49;96.19
47750;BME280;49810;48.160;10.812;2024-03-22T01:53:12;95964.19;;;3.47;96.13
47750;BME280;49810;48.160;10.812;2024-03-22T01:54:15;95958.78;;;3.50;96.38
47750;BME280;49810;48.160;10.812;2024-03-22T01:55:17;95954.66;;;3.49;96.36
47750;BME280;49810;48.160;10.812;2024-03-22T01:56:21;95956.88;;;3.51;96.36
47750;BME280;49810;48.160;10.812;2024-03-22T01:57:23;95944.00;;;3.40;96.15
47750;BME280;49810;48.160;10.812;2024-03-22T01:58:24;95955.09;;;3.47;95.69
47750;BME280;49810;48.160;10.812;2024-03-22T01:59:26;95946.94;;;3.42;96.52
47750;BME280;49810;48.160;10.812;2024-03-22T02:00:27;95943.66;;;3.38;95.86
47750;BME280;49810;48.160;10.812;2024-03-22T02:01:29;95944.22;;;3.33;96.42
47750;BME280;49810;48.160;10.812;2024-03-22T02:02:31;95944.13;;;3.37;96.19
47750;BME280;49810;48.160;10.812;2024-03-22T02:03:32;95948.66;;;3.36;96.52
47750;BME280;49810;48.160;10.812;2024-03-22T02:04:34;95947.91;;;3.35;95.75
47750;BME280;49810;48.160;10.812;2024-03-22T02:05:36;95946.97;;;3.29;95.63
47750;BME280;49810;48.160;10.812;2024-03-22T02:06:37;95941.25;;;3.31;95.89
47750;BME280;49810;48.160;10.812;2024-03-22T02:07:38;95940.22;;;3.28;95.82
47750;BME280;49810;48.160;10.812;2024-03-22T02:08:39;95941.06;;;3.25;96.60
47750;BME280;49810;48.160;10.812;2024-03-22T02:09:43;95939.16;;;3.26;96.46
47750;BME280;49810;48.160;10.812;2024-03-22T02:10:44;95918.47;;;3.12;96.39
47750;BME280;49810;48.160;10.812;2024-03-22T02:11:46;95933.38;;;3.18;96.42
47750;BME280;49810;48.160;10.812;2024-03-22T02:12:47;95932.72;;;3.14;95.95
47750;BME280;49810;48.160;10.812;2024-03-22T02:13:49;95930.84;;;3.15;96.29
47750;BME280;49810;48.160;10.812;2024-03-22T02:14:50;95934.75;;;3.10;95.79
47750;BME280;49810;48.160;10.812;2024-03-22T02:15:51;95935.41;;;3.02;95.68
47750;BME280;49810;48.160;10.812;2024-03-22T02:16:52;95930.22;;;2.98;96.23
47750;BME280;49810;48.160;10.812;2024-03-22T02:17:55;95929.59;;;2.94;96.56
47750;BME280;49810;48.160;10.812;2024-03-22T02:18:56;95932.34;;;2.91;95.87
47750;BME280;49810;48.160;10.812;2024-03-22T02:19:58;95927.81;;;2.92;96.67
47750;BME280;49810;48.160;10.812;2024-03-22T02:20:59;95929.41;;;2.89;96.63
47750;BME280;49810;48.160;10.812;2024-03-22T02:22:00;95930.53;;;2.88;96.01
47750;BME280;49810;48.160;10.812;2024-03-22T02:23:03;95923.78;;;2.87;96.79
47750;BME280;49810;48.160;10.812;2024-03-22T02:24:06;95929.81;;;2.88;96.51
47750;BME280;49810;48.160;10.812;2024-03-22T02:25:07;95927.91;;;2.88;96.68
47750;BME280;49810;48.160;10.812;2024-03-22T02:26:09;95917.84;;;2.95;95.90
47750;BME280;49810;48.160;10.812;2024-03-22T02:27:10;95922.19;;;3.02;96.31
47750;BME280;49810;48.160;10.812;2024-03-22T02:28:11;95924.09;;;3.02;96.37
47750;BME280;49810;48.160;10.812;2024-03-22T02:29:13;95925.91;;;2.92;96.66
47750;BME280;49810;48.160;10.812;2024-03-22T02:30:14;95925.72;;;2.87;96.01
47750;BME280;49810;48.160;10.812;2024-03-22T02:31:16;95922.84;;;2.81;96.54
47750;BME280;49810;48.160;10.812;2024-03-22T02:32:17;95912.41;;;2.78;95.94
47750;BME280;49810;48.160;10.812;2024-03-22T02:33:18;95915.34;;;2.79;95.86
47750;BME280;49810;48.160;10.812;2024-03-22T02:34:20;95914.91;;;2.93;96.12
47750;BME280;49810;48.160;10.812;2024-03-22T02:35:21;95915.00;;;3.03;96.60
47750;BME280;49810;48.160;10.812;2024-03-22T02:36:22;95907.72;;;2.94;97.08
47750;BME280;49810;48.160;10.812;2024-03-22T02:37:23;95912.91;;;2.85;96.29
47750;BME280;49810;48.160;10.812;2024-03-22T02:38:25;95909.63;;;2.81;97.02
47750;BME280;49810;48.160;10.812;2024-03-22T02:39:28;95911.97;;;2.79;96.85
47750;BME280;49810;48.160;10.812;2024-03-22T02:40:29;95900.88;;;2.72;96.53
47750;BME280;49810;48.160;10.812;2024-03-22T02:41:30;95907.00;;;2.68;96.21
47750;BME280;49810;48.160;10.812;2024-03-22T02:42:32;95903.72;;;2.64;96.28
47750;BME280;49810;48.160;10.812;2024-03-22T02:43:33;95909.13;;;2.61;96.20
47750;BME280;49810;48.160;10.812;2024-03-22T02:44:34;95903.63;;;2.55;96.48
47750;BME280;49810;48.160;10.812;2024-03-22T02:45:39;95903.72;;;2.52;95.79
47750;BME280;49810;48.160;10.812;2024-03-22T02:46:40;95903.44;;;2.50;96.59
47750;BME280;49810;48.160;10.812;2024-03-22T02:47:42;95894.88;;;2.46;96.43
47750;BME280;49810;48.160;10.812;2024-03-22T02:48:43;95893.50;;;2.42;95.89
47750;BME280;49810;48.160;10.812;2024-03-22T02:49:44;95898.34;;;2.43;96.63
47750;BME280;49810;48.160;10.812;2024-03-22T02:50:45;95895.69;;;2.43;95.79
47750;BME280;49810;48.160;10.812;2024-03-22T02:51:47;95893.94;;;2.40;96.53
47750;BME280;49810;48.160;10.812;2024-03-22T02:52:48;95888.00;;;2.36;96.34
47750;BME280;49810;48.160;10.812;2024-03-22T02:53:49;95893.69;;;2.34;96.40
47750;BME280;49810;48.160;10.812;2024-03-22T02:54:53;95887.69;;;2.34;96.75
47750;BME280;49810;48.160;10.812;2024-03-22T02:55:54;95894.66;;;2.40;96.74
47750;BME280;49810;48.160;10.812;2024-03-22T02:56:55;95895.81;;;2.39;97.03
47750;BME280;49810;48.160;10.812;2024-03-22T02:57:56;95885.78;;;2.47;96.64
47750;BME280;49810;48.160;10.812;2024-03-22T02:58:58;95894.97;;;2.55;96.26
47750;BME280;49810;48.160;10.812;2024-03-22T03:00:00;95896.34;;;2.59;96.42
47750;BME280;49810;48.160;10.812;2024-03-22T03:01:01;95888.75;;;2.62;96.38
47750;BME280;49810;48.160;10.812;2024-03-22T03:02:03;95891.28;;;2.65;96.76
47750;BME280;49810;48.160;10.812;2024-03-22T03:03:04;95884.59;;;2.60;96.48
47750;BME280;49810;48.160;10.812;2024-03-22T03:04:05;95882.06;;;2.57;96.16
47750;BME280;49810;48.160;10.812;2024-03-22T03:05:07;95879.44;;;2.57;96.53
47750;BME280;49810;48.160;10.812;2024-03-22T03:06:10;95878.28;;;2.58;96.57
47750;BME280;49810;48.160;10.812;2024-03-22T03:07:13;95881.34;;;2.57;96.68
47750;BME280;49810;48.160;10.812;2024-03-22T03:08:14;95879.03;;;2.58;96.73
47750;BME280;49810;48.160;10.812;2024-03-22T03:09:15;95869.63;;;2.58;96.63
47750;BME280;49810;48.160;10.812;2024-03-22T03:10:19;95873.63;;;2.62;96.64
47750;BME280;49810;48.160;10.812;2024-03-22T03:11:21;95875.09;;;2.63;97.24
47750;BME280;49810;48.160;10.812;2024-03-22T03:12:22;95873.50;;;2.65;96.73
47750;BME280;49810;48.160;10.812;2024-03-22T03:13:23;95870.88;;;2.65;96.10
47750;BME280;49810;48.160;10.812;2024-03-22T03:14:25;95877.97;;;2.68;96.36
47750;BME280;49810;48.160;10.812;2024-03-22T03:15:26;95873.50;;;2.65;96.11
47750;BME280;49810;48.160;10.812;2024-03-22T03:16:27;95868.97;;;2.66;97.16
47750;BME280;49810;48.160;10.812;2024-03-22T03:17:28;95870.44;;;2.67;97.02
47750;BME280;49810;48.160;10.812;2024-03-22T03:18:30;95871.91;;;2.68;97.10
47750;BME280;49810;48.160;10.812;2024-03-22T03:19:31;95864.88;;;2.65;96.60
47750;BME280;49810;48.160;10.812;2024-03-22T03:20:32;95873.63;;;2.62;97.02
47750;BME280;49810;48.160;10.812;2024-03-22T03:21:34;95863.94;;;2.59;96.12
47750;BME280;49810;48.160;10.812;2024-03-22T03:22:35;95858.19;;;2.60;97.16
47750;BME280;49810;48.160;10.812;2024-03-22T03:23:36;95872.16;;;2.61;96.82
47750;BME280;49810;48.160;10.812;2024-03-22T03:24:37;95865.28;;;2.63;96.66
47750;BME280;49810;48.160;10.812;2024-03-22T03:25:41;95862.63;;;2.63;97.07
47750;BME280;49810;48.160;10.812;2024-03-22T03:26:42;95867.19;;;2.63;96.69
47750;BME280;49810;48.160;10.812;2024-03-22T03:27:43;95862.34;;;2.62;96.83
47750;BME280;49810;48.160;10.812;2024-03-22T03:28:44;95867.50;;;2.65;96.31
47750;BME280;49810;48.160;10.812;2024-03-22T03:29:46;95857.06;;;2.62;97.34
47750;BME280;49810;48.160;10.812;2024-03-22T03:30:47;95864.88;;;2.65;96.83
47750;BME280;49810;48.160;10.812;2024-03-22T03:31:48;95861.06;;;2.66;97.31
47750;BME280;49810;48.160;10.812;2024-03-22T03:32:49;95864.13;;;2.64;96.82
47750;BME280;49810;48.160;10.812;2024-03-22T03:33:51;95859.69;;;2.62;96.36
47750;BME280;49810;48.160;10.812;2024-03-22T03:34:52;95861.28;;;2.59;96.71
47750;BME280;49810;48.160;10.812;2024-03-22T03:35:54;95867.09;;;2.54;96.42
47750;BME280;49810;48.160;10.812;2024-03-22T03:36:55;95862.97;;;2.53;97.20
47750;BME280;49810;48.160;10.812;2024-03-22T03:37:56;95857.69;;;2.53;97.22
47750;BME280;49810;48.160;10.812;2024-03-22T03:38:58;95863.50;;;2.48;97.20
47750;BME280;49810;48.160;10.812;2024-03-22T03:39:59;95862.66;;;2.51;97.24
47750;BME280;49810;48.160;10.812;2024-03-22T03:41:01;95862.88;;;2.57;96.63
47750;BME280;49810;48.160;10.812;2024-03-22T03:42:03;95859.91;;;2.54;97.24
47750;BME280;49810;48.160;10.812;2024-03-22T03:43:05;95857.69;;;2.53;97.37
47750;BME280;49810;48.160;10.812;2024-03-22T03:44:06;95849.16;;;2.49;96.37
47750;BME280;49810;48.160;10.812;2024-03-22T03:45:07;95860.13;;;2.47;96.40
47750;BME280;49810;48.160;10.812;2024-03-22T03:46:08;95848.50;;;2.45;97.31
47750;BME280;49810;48.160;10.812;2024-03-22T03:47:10;95847.66;;;2.48;96.44
47750;BME280;49810;48.160;10.812;2024-03-22T03:48:11;95853.69;;;2.48;96.77
47750;BME280;49810;48.160;10.812;2024-03-22T03:49:12;95845.13;;;2.44;96.45
47750;BME280;49810;48.160;10.812;2024-03-22T03:50:13;95847.88;;;2.41;96.79
47750;BME280;49810;48.160;10.812;2024-03-22T03:51:15;95854.50;;;2.45;97.00
47750;BME280;49810;48.160;10.812;2024-03-22T03:52:16;95848.19;;;2.43;97.08
47750;BME280;49810;48.160;10.812;2024-03-22T03:53:17;95852.63;;;2.46;97.15
47750;BME280;49810;48.160;10.812;2024-03-22T03:54:19;95850.09;;;2.42;97.48
47750;BME280;49810;48.160;10.812;2024-03-22T03:55:21;95845.22;;;2.41;96.66
47750;BME280;49810;48.160;10.812;2024-03-22T03:56:24;95850.41;;;2.44;96.33
47750;BME280;49810;48.160;10.812;2024-03-22T03:57:25;95841.84;;;2.40;97.08
47750;BME280;49810;48.160;10.812;2024-03-22T03:58:27;95843.00;;;2.39;97.30
47750;BME280;49810;48.160;10.812;2024-03-22T03:59:29;95845.66;;;2.39;96.67
47750;BME280;49810;48.160;10.812;2024-03-22T04:00:30;95837.44;;;2.38;97.40
47750;BME280;49810;48.160;10.812;2024-03-22T04:01:31;95838.16;;;2.38;96.81
47750;BME280;49810;48.160;10.812;2024-03-22T04:02:33;95838.06;;;2.42;97.20
47750;BME280;49810;48.160;10.812;2024-03-22T04:03:34;95835.50;;;2.38;97.13
47750;BME280;49810;48.160;10.812;2024-03-22T04:04:35;95834.38;;;2.39;96.39
47750;BME280;49810;48.160;10.812;2024-03-22T04:05:36;95841.00;;;2.43;97.42
47750;BME280;49810;48.160;10.812;2024-03-22T04:06:38;95837.31;;;2.41;97.05
47750;BME280;49810;48.160;10.812;2024-03-22T04:07:39;95832.66;;;2.45;97.27
47750;BME280;49810;48.160;10.812;2024-03-22T04:08:43;95829.94;;;2.36;97.38
47750;BME280;49810;48.160;10.812;2024-03-22T04:09:44;95828.03;;;2.37;96.50
47750;BME280;49810;48.160;10.812;2024-03-22T04:10:51;95832.78;;;2.29;96.91
47750;BME280;49810;48.160;10.812;2024-03-22T04:11:54;95833.41;;;2.33;96.38
47750;BME280;49810;48.160;10.812;2024-03-22T04:12:55;95838.25;;;2.34;96.95
47750;BME280;49810;48.160;10.812;2024-03-22T04:13:56;95838.25;;;2.34;96.71
47750;BME280;49810;48.160;10.812;2024-03-22T04:14:58;95826.66;;;2.32;97.31
47750;BME280;49810;48.160;10.812;2024-03-22T04:15:59;95833.50;;;2.29;96.79
47750;BME280;49810;48.160;10.812;2024-03-22T04:17:00;95828.03;;;2.37;97.67
47750;BME280;49810;48.160;10.812;2024-03-22T04:18:01;95823.59;;;2.33;96.43
47750;BME280;49810;48.160;10.812;2024-03-22T04:19:03;95829.19;;;2.35;97.26
47750;BME280;49810;48.160;10.812;2024-03-22T04:20:05;95818.94;;;2.38;97.01
47750;BME280;49810;48.160;10.812;2024-03-22T04:21:06;95819.59;;;2.42;97.53
47750;BME280;49810;48.160;10.812;2024-03-22T04:22:08;95831.28;;;2.40;96.88
47750;BME280;49810;48.160;10.812;2024-03-22T04:23:09;95826.63;;;2.44;97.69
47750;BME280;49810;48.160;10.812;2024-03-22T04:24:10;95819.13;;;2.43;97.12
47750;BME280;49810;48.160;10.812;2024-03-22T04:25:12;95823.06;;;2.38;97.48
47750;BME280;49810;48.160;10.812;2024-03-22T04:26:14;95821.69;;;2.34;96.67
47750;BME280;49810;48.160;10.812;2024-03-22T04:27:17;95812.72;;;2.32;96.70
47750;BME280;49810;48.160;10.812;2024-03-22T04:28:19;95813.34;;;2.35;96.72
47750;BME280;49810;48.160;10.812;2024-03-22T04:29:20;95821.47;;;2.41;97.14
47750;BME280;49810;48.160;10.812;2024-03-22T04:30:21;95819.13;;;2.43;96.66
47750;BME280;49810;48.160;10.812;2024-03-22T04:31:22;95807.34;;;2.35;96.99
47750;BME280;49810;48.160;10.812;2024-03-22T04:32:24;95822.63;;;2.40;97.49
47750;BME280;49810;48.160;10.812;2024-03-22T04:33:25;95822.75;;;2.37;96.93
47750;BME280;49810;48.160;10.812;2024-03-22T04:34:26;95821.69;;;2.34;96.98
47750;BME280;49810;48.160;10.812;2024-03-22T04:35:28;95824.00;;;2.32;96.79
47750;BME280;49810;48.160;10.812;2024-03-22T04:36:29;95820.19;;;2.33;96.63
47750;BME280;49810;48.160;10.812;2024-03-22T04:37:31;95825.94;;;2.32;97.60
47750;BME280;49810;48.160;10.812;2024-03-22T04:38:33;95826.53;;;2.35;96.70
47750;BME280;49810;48.160;10.812;2024-03-22T04:39:34;95827.50;;;2.29;96.73
47750;BME280;49810;48.160;10.812;2024-03-22T04:40:37;95825.41;;;2.24;97.60
47750;BME280;49810;48.160;10.812;2024-03-22T04:41:38;95822.22;;;2.29;96.65
47750;BME280;49810;48.160;10.812;2024-03-22T04:42:40;95830.44;;;2.31;97.00
47750;BME280;49810;48.160;10.812;2024-03-22T04:43:42;95823.47;;;2.37;96.99
47750;BME280;49810;48.160;10.812;2024-03-22T04:44:44;95823.47;;;2.37;97.82
47750;BME280;49810;48.160;10.812;2024-03-22T04:45:46;95820.72;;;2.40;96.73
47750;BME280;49810;48.160;10.812;2024-03-22T04:46:48;95821.06;;;2.42;96.64
47750;BME280;49810;48.160;10.812;2024-03-22T04:47:49;95823.81;;;2.39;96.63
47750;BME280;49810;48.160;10.812;2024-03-22T04:48:50;95824.22;;;2.38;96.81
47750;BME280;49810;48.160;10.812;2024-03-22T04:49:51;95821.59;;;2.38;97.30
47750;BME280;49810;48.160;10.812;2024-03-22T04:50:53;95815.66;;;2.33;97.83
47750;BME280;49810;48.160;10.812;2024-03-22T04:51:54;95824.66;;;2.36;96.64
47750;BME280;49810;48.160;10.812;2024-03-22T04:52:55;95819.13;;;2.43;96.71
47750;BME280;49810;48.160;10.812;2024-03-22T04:53:56;95826.22;;;2.46;97.58
47750;BME280;49810;48.160;10.812;2024-03-22T04:54:58;95822.84;;;2.45;97.90
47750;BME280;49810;48.160;10.812;2024-03-22T04:55:59;95819.88;;;2.43;97.36
47750;BME280;49810;48.160;10.812;2024-03-22T04:57:00;95819.59;;;2.42;97.81
47750;BME280;49810;48.160;10.812;2024-03-22T04:58:04;95824.41;;;2.43;97.64
47750;BME280;49810;48.160;10.812;2024-03-22T04:59:05;95823.81;;;2.39;97.86
47750;BME280;49810;48.160;10.812;2024-03-22T05:00:07;95817.91;;;2.35;97.71
47750;BME280;49810;48.160;10.812;2024-03-22T05:01:09;95822.53;;;2.31;97.01
47750;BME280;49810;48.160;10.812;2024-03-22T05:02:13;95820.72;;;2.28;97.92
47750;BME280;49810;48.160;10.812;2024-03-22T05:03:14;95823.81;;;2.27;96.76
47750;BME280;49810;48.160;10.812;2024-03-22T05:04:16;95798.91;;;2.15;97.23
47750;BME280;49810;48.160;10.812;2024-03-22T05:05:17;95824.66;;;2.23;96.71
47750;BME280;49810;48.160;10.812;2024-03-22T05:06:19;95829.63;;;2.22;97.36
47750;BME280;49810;48.160;10.812;2024-03-22T05:07:20;95830.75;;;2.20;97.14
47750;BME280;49810;48.160;10.812;2024-03-22T05:08:21;95829.00;;;2.17;97.50
47750;BME280;49810;48.160;10.812;2024-03-22T05:09:23;95825.19;;;2.18;97.19
47750;BME280;49810;48.160;10.812;2024-03-22T05:10:24;95832.34;;;2.18;97.46
47750;BME280;49810;48.160;10.812;2024-03-22T05:11:25;95824.13;;;2.16;97.28
47750;BME280;49810;48.160;10.812;2024-03-22T05:12:27;95831.63;;;2.17;97.15
47750;BME280;49810;48.160;10.812;2024-03-22T05:13:30;95829.72;;;2.18;97.88
47750;BME280;49810;48.160;10.812;2024-03-22T05:14:31;95825.94;;;2.19;96.97
47750;BME280;49810;48.160;10.812;2024-03-22T05:15:32;95831.50;;;2.21;97.85
47750;BME280;49810;48.160;10.812;2024-03-22T05:16:34;95828.47;;;2.22;97.51
47750;BME280;49810;48.160;10.812;2024-03-22T05:17:36;95821.59;;;2.25;97.62
47750;BME280;49810;48.160;10.812;2024-03-22T05:18:37;95822.75;;;2.24;97.66
47750;BME280;49810;48.160;10.812;2024-03-22T05:19:38;95826.47;;;2.27;96.96
47750;BME280;49810;48.160;10.812;2024-03-22T05:20:40;95824.53;;;2.27;97.40
47750;BME280;49810;48.160;10.812;2024-03-22T05:21:41;95819.59;;;2.29;96.77
47750;BME280;49810;48.160;10.812;2024-03-22T05:22:42;95823.72;;;2.30;97.20
47750;BME280;49810;48.160;10.812;2024-03-22T05:23:43;95817.91;;;2.35;97.68
47750;BME280;49810;48.160;10.812;2024-03-22T05:24:45;95819.66;;;2.38;97.03
47750;BME280;49810;48.160;10.812;2024-03-22T05:25:47;95819.59;;;2.42;97.93